createdAt,value
2019-01-04T00:00:43.406Z,-0.04
2019-01-04T00:03:12.640Z,-0.12
2019-01-04T00:05:41.861Z,0.09
2019-01-04T00:08:11.008Z,-0.03
2019-01-04T00:10:40.286Z,0.08
2019-01-04T00:13:09.657Z,0.20
2019-01-04T00:15:38.864Z,0.27
2019-01-04T00:18:08.004Z,0.27
2019-01-04T00:20:37.296Z,0.29
2019-01-04T00:23:06.556Z,0.23
2019-01-04T00:25:35.656Z,0.30
2019-01-04T00:28:04.843Z,0.31
2019-01-04T00:30:33.992Z,0.40
2019-01-04T00:33:03.197Z,0.47
2019-01-04T00:35:32.346Z,0.45
2019-01-04T00:38:01.742Z,0.37
2019-01-04T00:40:30.961Z,0.38
2019-01-04T00:43:00.174Z,0.37
2019-01-04T00:45:29.344Z,0.31
2019-01-04T00:47:58.849Z,0.30
2019-01-04T00:50:28.226Z,0.29
2019-01-04T00:52:57.363Z,0.31
2019-01-04T00:56:17.735Z,0.21
2019-01-04T00:59:22.910Z,0.26
2019-01-04T01:02:37.710Z,0.20
2019-01-04T01:05:32.916Z,0.16
2019-01-04T01:08:28.409Z,0.10
2019-01-04T01:11:42.297Z,0.20
2019-01-04T01:15:01.453Z,0.35
2019-01-04T01:17:54.330Z,0.44
2019-01-04T01:21:25.691Z,0.51
2019-01-04T01:24:34.701Z,0.50
2019-01-04T01:27:43.965Z,0.60
2019-01-04T01:31:06.508Z,0.58
2019-01-04T01:34:00.769Z,0.59
2019-01-04T01:37:13.309Z,0.64
2019-01-04T01:40:19.223Z,0.71
2019-01-04T01:43:23.702Z,0.76
2019-01-04T01:46:17.631Z,0.83
2019-01-04T01:49:28.004Z,0.87
2019-01-04T01:52:20.708Z,0.89
2019-01-04T01:54:49.917Z,0.95
2019-01-04T01:57:19.054Z,1.05
2019-01-04T01:59:48.315Z,1.03
2019-01-04T02:02:17.553Z,1.05
2019-01-04T02:04:46.737Z,1.09
2019-01-04T02:07:15.878Z,1.06
2019-01-04T02:09:45.236Z,1.09
2019-01-04T02:12:14.666Z,1.09
2019-01-04T02:14:43.827Z,1.13
2019-01-04T02:17:13.084Z,1.24
2019-01-04T02:19:42.453Z,1.25
2019-01-04T02:22:11.794Z,1.27
2019-01-04T02:24:40.944Z,1.38
2019-01-04T02:27:10.133Z,1.38
2019-01-04T02:29:39.277Z,1.47
2019-01-04T02:32:08.413Z,1.50
2019-01-04T02:34:37.591Z,1.47
2019-01-04T02:37:06.786Z,1.45
2019-01-04T02:39:35.995Z,1.47
2019-01-04T02:42:05.202Z,1.43
2019-01-04T02:44:34.443Z,1.41
2019-01-04T02:47:03.585Z,1.53
2019-01-04T02:49:33.023Z,1.58
2019-01-04T02:52:02.377Z,1.51
2019-01-04T02:54:31.508Z,1.49
2019-01-04T02:57:00.698Z,1.56
2019-01-04T02:59:30.327Z,1.57
2019-01-04T03:01:59.468Z,1.60
2019-01-04T03:04:28.698Z,1.66
2019-01-04T03:06:58.189Z,1.71
2019-01-04T03:09:27.338Z,1.78
2019-01-04T03:11:56.486Z,1.73
2019-01-04T03:14:25.651Z,1.77
2019-01-04T03:16:54.791Z,1.84
2019-01-04T03:19:23.978Z,1.85
2019-01-04T03:21:53.152Z,1.83
2019-01-04T03:24:22.319Z,1.86
2019-01-04T03:26:51.470Z,1.85
2019-01-04T03:29:20.620Z,1.85
2019-01-04T03:31:49.765Z,1.87
2019-01-04T03:34:18.920Z,1.87
2019-01-04T03:36:48.090Z,1.88
2019-01-04T03:39:17.230Z,1.90
2019-01-04T03:41:46.369Z,1.93
2019-01-04T03:44:15.558Z,1.93
2019-01-04T03:46:44.811Z,1.92
2019-01-04T03:49:14.252Z,1.94
2019-01-04T03:51:43.495Z,1.93
2019-01-04T03:54:12.635Z,1.98
2019-01-04T03:56:41.835Z,1.98
2019-01-04T03:59:10.999Z,1.98
2019-01-04T04:01:40.128Z,1.95
2019-01-04T04:04:09.321Z,2.00
2019-01-04T04:06:38.466Z,2.03
2019-01-04T04:09:08.161Z,2.04
2019-01-04T04:11:37.290Z,2.18
2019-01-04T04:14:06.467Z,2.23
2019-01-04T04:16:35.595Z,2.28
2019-01-04T04:19:04.716Z,2.24
2019-01-04T04:21:34.127Z,2.29
2019-01-04T04:24:03.269Z,2.31
2019-01-04T04:26:32.478Z,2.43
2019-01-04T04:29:02.533Z,2.42
2019-01-04T04:31:31.779Z,2.41
2019-01-04T04:34:00.915Z,2.51
2019-01-04T04:36:30.738Z,2.50
2019-01-04T04:38:59.850Z,2.56
2019-01-04T04:41:28.992Z,2.54
2019-01-04T04:43:58.149Z,2.62
2019-01-04T04:46:27.320Z,2.60
2019-01-04T04:48:56.614Z,2.58
2019-01-04T04:51:25.755Z,2.59
2019-01-04T04:53:54.954Z,2.69
2019-01-04T04:56:24.114Z,2.66
2019-01-04T04:58:53.254Z,2.76
2019-01-04T05:01:22.396Z,2.70
2019-01-04T05:03:51.583Z,2.77
2019-01-04T05:06:20.719Z,2.69
2019-01-04T05:08:49.864Z,2.75
2019-01-04T05:11:19.054Z,2.78
2019-01-04T05:13:48.301Z,2.81
2019-01-04T05:16:17.452Z,2.77
2019-01-04T05:18:46.717Z,2.82
2019-01-04T05:21:15.907Z,2.85
2019-01-04T05:23:45.045Z,2.87
2019-01-04T05:26:14.220Z,2.97
2019-01-04T05:28:43.398Z,3.05
2019-01-04T05:31:12.562Z,3.07
2019-01-04T05:33:41.791Z,3.06
2019-01-04T05:36:10.956Z,3.15
2019-01-04T05:38:40.141Z,3.20
2019-01-04T05:41:09.321Z,3.16
2019-01-04T05:43:38.456Z,3.19
2019-01-04T05:46:07.591Z,3.29
2019-01-04T05:48:36.801Z,3.28
2019-01-04T05:51:06.146Z,3.31
2019-01-04T05:53:35.368Z,3.31
2019-01-04T05:56:04.495Z,3.34
2019-01-04T05:58:33.730Z,3.40
2019-01-04T06:01:02.900Z,3.43
2019-01-04T06:03:32.151Z,3.43
2019-01-04T06:06:02.243Z,3.44
2019-01-04T06:08:31.379Z,3.50
2019-01-04T06:11:00.528Z,3.46
2019-01-04T06:13:29.709Z,3.50
2019-01-04T06:15:58.836Z,3.52
2019-01-04T06:18:27.963Z,3.39
2019-01-04T06:20:57.127Z,3.47
2019-01-04T06:23:26.309Z,3.50
2019-01-04T06:25:55.436Z,3.54
2019-01-04T06:28:24.619Z,3.51
2019-01-04T06:30:53.775Z,3.53
2019-01-04T06:33:22.957Z,3.54
2019-01-04T06:35:52.508Z,3.58
2019-01-04T06:38:21.666Z,3.58
2019-01-04T06:40:50.796Z,3.59
2019-01-04T06:43:20.120Z,3.57
2019-01-04T06:45:51.766Z,3.59
2019-01-04T06:48:20.895Z,3.65
2019-01-04T06:50:50.341Z,3.67
2019-01-04T06:53:19.515Z,3.65
2019-01-04T06:55:59.689Z,3.69
2019-01-04T06:58:28.860Z,3.69
2019-01-04T07:00:58.078Z,3.68
2019-01-04T07:03:27.209Z,3.66
2019-01-04T07:05:56.455Z,3.69
2019-01-04T07:08:25.616Z,3.69
2019-01-04T07:10:54.742Z,3.67
2019-01-04T07:13:24.175Z,3.69
2019-01-04T07:15:53.317Z,3.70
2019-01-04T07:18:22.465Z,3.69
2019-01-04T07:20:51.675Z,3.61
2019-01-04T07:23:20.916Z,3.66
2019-01-04T07:25:50.080Z,3.65
2019-01-04T07:28:19.561Z,3.70
2019-01-04T07:30:48.752Z,3.66
2019-01-04T07:33:17.964Z,3.68
2019-01-04T07:35:47.360Z,3.66
2019-01-04T07:38:16.564Z,3.64
2019-01-04T07:40:45.731Z,3.63
2019-01-04T07:43:16.591Z,3.58
2019-01-04T07:45:45.890Z,3.57
2019-01-04T07:48:15.126Z,3.59
2019-01-04T07:50:44.429Z,3.53
2019-01-04T07:53:13.575Z,3.50
2019-01-04T07:55:42.710Z,3.53
2019-01-04T07:58:11.985Z,3.56
2019-01-04T08:00:41.232Z,3.51
2019-01-04T08:03:16.094Z,3.51
2019-01-04T08:05:45.238Z,3.56
2019-01-04T08:08:14.371Z,3.57
2019-01-04T08:10:43.598Z,3.53
2019-01-04T08:13:12.720Z,3.52
2019-01-04T08:15:41.887Z,3.44
2019-01-04T08:18:11.112Z,3.45
2019-01-04T08:20:40.254Z,3.48
2019-01-04T08:23:09.413Z,3.51
2019-01-04T08:25:38.640Z,3.53
2019-01-04T08:28:07.802Z,3.52
2019-01-04T08:30:36.960Z,3.47
2019-01-04T08:33:06.162Z,3.48
2019-01-04T08:35:35.389Z,3.50
2019-01-04T08:38:04.564Z,3.53
2019-01-04T08:40:33.684Z,3.53
2019-01-04T08:43:02.886Z,3.54
2019-01-04T08:45:32.009Z,3.52
2019-01-04T08:48:01.139Z,3.57
2019-01-04T08:50:30.339Z,3.58
2019-01-04T08:52:59.944Z,3.58
2019-01-04T08:55:30.635Z,3.57
2019-01-04T08:57:59.769Z,3.64
2019-01-04T09:00:28.927Z,3.54
2019-01-04T09:02:58.388Z,3.63
2019-01-04T09:05:27.517Z,3.57
2019-01-04T09:07:56.662Z,3.49
2019-01-04T09:10:26.003Z,3.50
2019-01-04T09:12:55.176Z,3.56
2019-01-04T09:15:24.547Z,3.59
2019-01-04T09:17:53.717Z,3.58
2019-01-04T09:20:22.904Z,3.58
2019-01-04T09:22:52.160Z,3.57
2019-01-04T09:25:21.497Z,3.61
2019-01-04T09:27:50.708Z,3.58
2019-01-04T09:30:19.995Z,3.64
2019-01-04T09:32:49.225Z,3.62
2019-01-04T09:35:19.154Z,3.65
2019-01-04T09:37:48.325Z,3.65
2019-01-04T09:40:17.507Z,3.65
2019-01-04T09:42:48.284Z,3.68
2019-01-04T09:45:17.459Z,3.69
2019-01-04T09:47:46.597Z,3.69
2019-01-04T09:50:17.652Z,3.71
2019-01-04T09:52:46.934Z,3.68
2019-01-04T09:55:16.132Z,3.70
2019-01-04T09:57:45.378Z,3.71
2019-01-04T10:00:15.128Z,3.74
2019-01-04T10:02:44.260Z,3.73
2019-01-04T10:05:13.664Z,3.73
2019-01-04T10:07:42.824Z,3.73
2019-01-04T10:10:12.824Z,3.75
2019-01-04T10:12:42.140Z,3.77
2019-01-04T10:15:14.346Z,3.76
2019-01-04T10:17:43.572Z,3.79
2019-01-04T10:20:12.833Z,3.79
2019-01-04T10:22:42.102Z,3.76
2019-01-04T10:25:11.338Z,3.85
2019-01-04T10:27:40.565Z,3.89
2019-01-04T10:30:12.801Z,3.85
2019-01-04T10:32:41.976Z,3.83
2019-01-04T10:35:11.156Z,3.81
2019-01-04T10:37:40.468Z,3.82
2019-01-04T10:40:11.238Z,3.82
2019-01-04T10:42:40.544Z,3.85
2019-01-04T10:45:09.693Z,3.89
2019-01-04T10:47:38.939Z,3.90
2019-01-04T10:50:08.102Z,3.84
2019-01-04T10:52:37.265Z,3.91
2019-01-04T10:55:06.517Z,3.84
2019-01-04T10:57:35.673Z,3.86
2019-01-04T11:00:05.661Z,3.90
2019-01-04T11:02:35.294Z,3.87
2019-01-04T11:05:04.751Z,3.89
2019-01-04T11:07:33.897Z,3.90
2019-01-04T11:10:03.064Z,3.92
2019-01-04T11:12:32.384Z,3.95
2019-01-04T11:15:02.914Z,3.99
2019-01-04T11:17:32.234Z,4.01
2019-01-04T11:20:02.631Z,4.04
2019-01-04T11:23:04.331Z,4.02
2019-01-04T11:25:56.901Z,4.04
2019-01-04T11:29:00.276Z,4.04
2019-01-04T11:31:47.877Z,4.08
2019-01-04T11:34:58.544Z,4.06
2019-01-04T11:37:41.229Z,4.13
2019-01-04T11:40:50.597Z,4.07
2019-01-04T11:43:57.706Z,4.06
2019-01-04T11:47:02.537Z,4.06
2019-01-04T11:49:56.986Z,4.09
2019-01-04T11:52:32.083Z,4.12
2019-01-04T11:55:02.251Z,4.13
2019-01-04T11:57:31.525Z,4.17
2019-01-04T12:00:00.673Z,4.23
2019-01-04T12:02:29.835Z,4.21
2019-01-04T12:05:01.707Z,4.18
2019-01-04T12:07:31.004Z,4.13
2019-01-04T12:10:00.239Z,4.21
2019-01-04T12:12:29.403Z,4.13
2019-01-04T12:15:02.335Z,4.22
2019-01-04T12:17:31.538Z,4.27
2019-01-04T12:20:00.715Z,4.19
2019-01-04T12:22:30.167Z,4.19
2019-01-04T12:24:59.442Z,4.21
2019-01-04T12:27:28.588Z,4.22
2019-01-04T12:29:57.764Z,4.27
2019-01-04T12:32:26.996Z,4.24
2019-01-04T12:34:56.152Z,4.32
2019-01-04T12:37:25.336Z,4.31
2019-01-04T12:39:54.479Z,4.27
2019-01-04T12:42:23.628Z,4.26
2019-01-04T12:44:52.806Z,4.35
2019-01-04T12:47:21.954Z,4.31
2019-01-04T12:49:51.189Z,4.34
2019-01-04T12:52:20.425Z,4.33
2019-01-04T12:54:49.594Z,4.33
2019-01-04T12:57:19.046Z,4.26
2019-01-04T12:59:48.186Z,4.24
2019-01-04T13:02:17.320Z,4.30
2019-01-04T13:04:46.935Z,4.33
2019-01-04T13:07:16.170Z,4.31
2019-01-04T13:09:45.300Z,4.35
2019-01-04T13:12:15.385Z,4.31
2019-01-04T13:14:44.646Z,4.33
2019-01-04T13:17:13.843Z,4.41
2019-01-04T13:19:42.976Z,4.41
2019-01-04T13:22:12.141Z,4.45
2019-01-04T13:24:41.318Z,4.41
2019-01-04T13:27:10.486Z,4.49
2019-01-04T13:29:39.600Z,4.51
2019-01-04T13:32:09.133Z,4.49
2019-01-04T13:34:38.258Z,4.53
2019-01-04T13:37:07.412Z,4.57
2019-01-04T13:39:36.592Z,4.57
2019-01-04T13:42:05.761Z,4.63
2019-01-04T13:44:34.946Z,4.62
2019-01-04T13:47:04.096Z,4.55
2019-01-04T13:49:33.235Z,4.57
2019-01-04T13:52:02.540Z,4.57
2019-01-04T13:54:31.690Z,4.57
2019-01-04T13:57:02.728Z,4.56
2019-01-04T13:59:31.896Z,4.47
2019-01-04T14:02:01.040Z,4.53
2019-01-04T14:04:30.466Z,4.48
2019-01-04T14:06:59.682Z,4.49
2019-01-04T14:09:28.869Z,4.51
2019-01-04T14:11:58.031Z,4.47
2019-01-04T14:14:27.155Z,4.46
2019-01-04T14:16:57.626Z,4.45
2019-01-04T14:19:26.764Z,4.45
2019-01-04T14:21:55.902Z,4.45
2019-01-04T14:24:25.093Z,4.46
2019-01-04T14:26:54.250Z,4.42
2019-01-04T14:29:23.460Z,4.41
2019-01-04T14:31:52.594Z,4.41
2019-01-04T14:34:21.781Z,4.41
2019-01-04T14:36:50.980Z,4.42
2019-01-04T14:39:20.257Z,4.44
2019-01-04T14:41:49.448Z,4.45
2019-01-04T14:44:18.914Z,4.49
2019-01-04T14:46:48.076Z,4.49
2019-01-04T14:49:17.380Z,4.52
2019-01-04T14:51:46.551Z,4.49
2019-01-04T14:54:15.755Z,4.50
2019-01-04T14:56:44.898Z,4.54
2019-01-04T14:59:14.236Z,4.54
2019-01-04T15:01:43.436Z,4.57
2019-01-04T15:04:12.609Z,4.56
2019-01-04T15:06:41.773Z,4.56
2019-01-04T15:09:10.972Z,4.52
2019-01-04T15:11:40.256Z,4.54
2019-01-04T15:14:09.416Z,4.55
2019-01-04T15:16:38.883Z,4.53
2019-01-04T15:19:08.021Z,4.51
2019-01-04T15:21:37.251Z,4.49
2019-01-04T15:24:06.414Z,4.51
2019-01-04T15:26:35.561Z,4.50
2019-01-04T15:29:07.866Z,4.49
2019-01-04T15:31:37.148Z,4.49
2019-01-04T15:34:06.348Z,4.47
2019-01-04T15:36:35.487Z,4.50
2019-01-04T15:39:06.437Z,4.49
2019-01-04T15:41:35.715Z,4.53
2019-01-04T15:44:04.892Z,4.49
2019-01-04T15:46:34.043Z,4.50
2019-01-04T15:49:03.563Z,4.47
2019-01-04T15:51:32.834Z,4.50
2019-01-04T15:54:02.107Z,4.50
2019-01-04T15:56:31.295Z,4.52
2019-01-04T15:59:00.433Z,4.54
2019-01-04T16:01:30.026Z,4.57
2019-01-04T16:03:59.175Z,4.57
2019-01-04T16:06:28.317Z,4.56
2019-01-04T16:08:57.505Z,4.54
2019-01-04T16:11:26.640Z,4.57
2019-01-04T16:13:55.856Z,4.56
2019-01-04T16:16:25.106Z,4.59
2019-01-04T16:18:54.290Z,4.59
2019-01-04T16:21:23.456Z,4.60
2019-01-04T16:23:52.667Z,4.61
2019-01-04T16:26:22.135Z,4.57
2019-01-04T16:28:51.385Z,4.60
2019-01-04T16:31:20.578Z,4.58
2019-01-04T16:33:49.871Z,4.56
2019-01-04T16:36:19.035Z,4.60
2019-01-04T16:38:48.189Z,4.63
2019-01-04T16:41:18.283Z,4.62
2019-01-04T16:43:47.557Z,4.63
2019-01-04T16:46:16.718Z,4.66
2019-01-04T16:48:45.869Z,4.63
2019-01-04T16:51:15.578Z,4.63
2019-01-04T16:53:44.747Z,4.60
2019-01-04T16:56:14.007Z,4.64
2019-01-04T16:58:43.151Z,4.63
2019-01-04T17:01:12.440Z,4.64
2019-01-04T17:03:41.600Z,4.63
2019-01-04T17:06:10.746Z,4.60
2019-01-04T17:08:39.943Z,4.56
2019-01-04T17:11:09.224Z,4.63
2019-01-04T17:13:38.486Z,4.64
2019-01-04T17:16:07.930Z,4.64
2019-01-04T17:18:37.254Z,4.65
2019-01-04T17:21:06.501Z,4.60
2019-01-04T17:23:35.797Z,4.62
2019-01-04T17:26:05.292Z,4.67
2019-01-04T17:28:34.446Z,4.65
2019-01-04T17:31:03.663Z,4.68
2019-01-04T17:33:32.994Z,4.65
2019-01-04T17:36:02.139Z,4.68
2019-01-04T17:38:31.483Z,4.71
2019-01-04T17:41:00.742Z,4.65
2019-01-04T17:43:31.270Z,4.71
2019-01-04T17:46:00.425Z,4.71
2019-01-04T17:48:29.765Z,4.71
2019-01-04T17:50:58.944Z,4.68
2019-01-04T17:53:28.083Z,4.74
2019-01-04T17:55:57.272Z,4.73
2019-01-04T17:58:26.500Z,4.75
2019-01-04T18:00:55.764Z,4.73
2019-01-04T18:03:24.974Z,4.73
2019-01-04T18:05:54.146Z,4.78
2019-01-04T18:08:23.285Z,4.76
2019-01-04T18:10:52.866Z,4.77
2019-01-04T18:13:22.081Z,4.77
2019-01-04T18:15:51.234Z,4.81
2019-01-04T18:18:20.620Z,4.86
2019-01-04T18:20:49.918Z,4.88
2019-01-04T18:23:19.189Z,4.88
2019-01-04T18:25:48.371Z,4.90
2019-01-04T18:28:17.706Z,4.90
2019-01-04T18:30:46.939Z,4.90
2019-01-04T18:33:16.076Z,4.93
2019-01-04T18:35:45.283Z,4.90
2019-01-04T18:38:14.530Z,4.91
2019-01-04T18:40:43.749Z,4.92
2019-01-04T18:43:13.023Z,4.94
2019-01-04T18:45:42.189Z,4.96
2019-01-04T18:48:12.408Z,4.93
2019-01-04T18:50:42.135Z,4.97
2019-01-04T18:53:11.464Z,4.99
2019-01-04T18:55:40.802Z,4.97
2019-01-04T18:58:10.020Z,5.01
2019-01-04T19:00:39.247Z,5.04
2019-01-04T19:03:08.444Z,5.04
2019-01-04T19:05:37.646Z,5.04
2019-01-04T19:08:06.951Z,5.10
2019-01-04T19:10:36.116Z,5.10
2019-01-04T19:13:05.319Z,5.13
2019-01-04T19:15:34.484Z,5.09
2019-01-04T19:18:03.813Z,5.10
2019-01-04T19:20:33.089Z,5.15
2019-01-04T19:23:02.561Z,5.14
2019-01-04T19:25:31.878Z,5.25
2019-01-04T19:28:02.246Z,5.20
2019-01-04T19:30:31.650Z,5.25
2019-01-04T19:33:01.677Z,5.24
2019-01-04T19:35:31.165Z,5.27
2019-01-04T19:38:00.439Z,5.30
2019-01-04T19:40:29.817Z,5.34
2019-01-04T19:42:59.147Z,5.30
2019-01-04T19:45:30.783Z,5.36
2019-01-04T19:48:00.322Z,5.35
2019-01-04T19:50:30.018Z,5.39
2019-01-04T19:52:59.375Z,5.45
2019-01-04T19:55:28.617Z,5.44
2019-01-04T19:57:58.324Z,5.47
2019-01-04T20:00:27.938Z,5.43
2019-01-04T20:02:57.300Z,5.47
2019-01-04T20:06:32.470Z,5.53
2019-01-04T20:09:56.826Z,5.52
2019-01-04T20:13:23.843Z,5.46
2019-01-04T20:16:40.402Z,5.53
2019-01-04T20:19:32.380Z,5.58
2019-01-04T20:22:22.805Z,5.57
2019-01-04T20:25:14.356Z,5.61
2019-01-04T20:28:02.220Z,5.64
2019-01-04T20:30:47.771Z,5.71
2019-01-04T20:33:40.351Z,5.74
2019-01-04T20:36:27.232Z,5.73
2019-01-04T20:39:14.483Z,5.74
2019-01-04T20:42:15.095Z,5.75
2019-01-04T20:45:02.109Z,5.74
2019-01-04T20:47:48.843Z,5.70
2019-01-04T20:50:42.882Z,5.81
2019-01-04T20:53:29.597Z,5.82
2019-01-04T20:56:16.780Z,5.82
2019-01-04T20:59:06.194Z,5.83
2019-01-04T21:02:03.361Z,5.79
2019-01-04T21:04:57.570Z,5.83
2019-01-04T21:07:49.664Z,5.79
2019-01-04T21:10:53.717Z,5.82
2019-01-04T21:13:58.534Z,5.76
2019-01-04T21:16:45.111Z,5.83
2019-01-04T21:19:33.049Z,5.82
2019-01-04T21:22:21.612Z,5.89
2019-01-04T21:25:08.370Z,5.90
2019-01-04T21:28:03.057Z,5.84
2019-01-04T21:30:50.191Z,5.86
2019-01-04T21:33:37.578Z,5.87
2019-01-04T21:36:24.610Z,5.87
2019-01-04T21:39:25.305Z,5.80
2019-01-04T21:42:22.652Z,5.80
2019-01-04T21:45:22.946Z,5.79
2019-01-04T21:48:10.919Z,5.76
2019-01-04T21:50:57.944Z,5.72
2019-01-04T21:53:55.689Z,5.71
2019-01-04T21:56:42.565Z,5.69
2019-01-04T21:59:34.835Z,5.64
2019-01-04T22:02:25.783Z,5.65
2019-01-04T22:05:14.624Z,5.63
2019-01-04T22:08:02.776Z,5.71
2019-01-04T22:10:49.774Z,5.68
2019-01-04T22:13:46.980Z,5.69
2019-01-04T22:16:44.314Z,5.70
2019-01-04T22:19:47.334Z,5.70
2019-01-04T22:22:36.879Z,5.70
2019-01-04T22:25:25.112Z,5.72
2019-01-04T22:28:11.866Z,5.64
2019-01-04T22:31:14.842Z,5.71
2019-01-04T22:34:02.202Z,5.69
2019-01-04T22:37:02.860Z,5.69
2019-01-04T22:40:04.743Z,5.73
2019-01-04T22:43:04.917Z,5.74
2019-01-04T22:45:52.028Z,5.75
2019-01-04T22:48:42.403Z,5.73
2019-01-04T22:51:29.206Z,5.75
2019-01-04T22:54:35.532Z,5.77
2019-01-04T22:57:29.070Z,5.71
2019-01-04T23:00:15.939Z,5.67
2019-01-04T23:03:22.670Z,5.75
2019-01-04T23:06:22.467Z,5.75
2019-01-04T23:09:13.498Z,5.70
2019-01-04T23:12:16.378Z,5.74
2019-01-04T23:15:09.368Z,5.75
2019-01-04T23:18:06.599Z,5.76
2019-01-04T23:20:53.372Z,5.78
2019-01-04T23:23:40.452Z,5.74
2019-01-04T23:26:27.437Z,5.76
2019-01-04T23:29:24.839Z,5.78
2019-01-04T23:32:16.437Z,5.74
2019-01-04T23:35:03.390Z,5.79
2019-01-04T23:38:02.143Z,5.82
2019-01-04T23:40:53.417Z,5.82
2019-01-04T23:43:40.276Z,5.82
2019-01-04T23:46:24.960Z,5.85
2019-01-04T23:49:09.015Z,5.85
2019-01-04T23:51:57.216Z,5.83
2019-01-04T23:54:34.775Z,5.90
2019-01-04T23:57:32.157Z,5.93
